San Ygnacio, TX (78067)

5:06 PM CDT on July 30, 2016 (GMT -0500)
Zapata | | Change Station

Elev 423 ft 26.97 °N, 99.25 °W | Updated 11 minutes ago

Scattered Clouds
Scattered Clouds
100 °F
Feels Like 102 °F
N
20
Wind Variable Wind from ESE
Gusts 32 mph

Today
High -- | Low -- °F
--% Chance of Precip.
Yesterday
High -- | Low -- °F
Precip. -- in
Pressure 29.87 in
Visibility 10.0 miles
Clouds Scattered Clouds 8500 ft
Scattered Clouds 11000 ft
Heat Index 102 °F
Dew Point 61 °F
Humidity 28%
Rainfall 0.00 in
Snow Depth Not available.
7:01 AM 8:26 PM
Waning Crescent, 10% visible
METAR KAPY 302155Z AUTO 12017G28KT 10SM SCT085 SCT110 37/16 A2987 RMK AO2 T03800163
Pressure 29.87 in
Visibility 10.0 miles
Clouds Scattered Clouds 8500 ft
Scattered Clouds 11000 ft
Heat Index 102 °F
Dew Point 61 °F
Humidity 28%
Rainfall 0.00 in
Snow Depth Not available.
7:01 AM 8:26 PM
Waning Crescent, 10% visible
METAR KAPY 302155Z AUTO 12017G28KT 10SM SCT085 SCT110 37/16 A2987 RMK AO2 T03800163

10-Day Weather Forecast

Almanac

Astronomy

Jul. 30, 2016 Rise Set
Actual Time
Civil Twilight
Nautical Twilight
Astronomical Twilight
Moon
Length of Visible Light
Length of Day
Tomorrow will be .
, % of the Moon is Illuminated

Today's Extremes

State Highs State Lows

Community

WunderPhotos

Upload Photos

1,928,659 photos uploaded!

WunderBlog® & News

Nearby

Air Quality

  Air Quality AQ Index Pollutant
Not available.

Snow Depth

Station Depth Elevation

Earthquake Activity

City Distance Mag. Time & Date
Minimum magnitude displayed is 2.5.

Coastal Water Temperatures

Place Temperature

Stations

Nearby Weather Stations

Station Location Temp. Windchill Dew Point Humidity Wind Precip. Elev Updated Type
                   

Watches & Warnings

There are currently no watches in effect.